sensor_id;sensor_type;location;lat;lon;timestamp;P1;durP1;ratioP1;P2;durP2;ratioP2
33644;SDS011;19986;48.190;16.366;2023-12-20T00:02:19;73.55;;;67.55;;
33644;SDS011;19986;48.190;16.366;2023-12-20T00:04:45;77.22;;;71.22;;
33644;SDS011;19986;48.190;16.366;2023-12-20T00:07:11;76.40;;;70.53;;
33644;SDS011;19986;48.190;16.366;2023-12-20T00:09:37;75.82;;;69.80;;
33644;SDS011;19986;48.190;16.366;2023-12-20T00:12:03;77.43;;;71.43;;
33644;SDS011;19986;48.190;16.366;2023-12-20T00:14:29;76.18;;;70.07;;
33644;SDS011;19986;48.190;16.366;2023-12-20T00:16:54;73.55;;;67.72;;
33644;SDS011;19986;48.190;16.366;2023-12-20T00:19:20;75.75;;;69.70;;
33644;SDS011;19986;48.190;16.366;2023-12-20T00:21:46;79.65;;;73.50;;
33644;SDS011;19986;48.190;16.366;2023-12-20T00:24:12;77.75;;;71.72;;
33644;SDS011;19986;48.190;16.366;2023-12-20T00:26:38;73.07;;;67.65;;
33644;SDS011;19986;48.190;16.366;2023-12-20T00:29:03;74.63;;;68.68;;
33644;SDS011;19986;48.190;16.366;2023-12-20T00:31:29;73.75;;;68.00;;
33644;SDS011;19986;48.190;16.366;2023-12-20T00:33:55;73.80;;;67.70;;
33644;SDS011;19986;48.190;16.366;2023-12-20T00:36:21;70.68;;;64.90;;
33644;SDS011;19986;48.190;16.366;2023-12-20T00:38:47;74.75;;;69.00;;
33644;SDS011;19986;48.190;16.366;2023-12-20T00:41:13;77.32;;;71.38;;
33644;SDS011;19986;48.190;16.366;2023-12-20T00:43:39;70.72;;;65.20;;
33644;SDS011;19986;48.190;16.366;2023-12-20T00:46:05;73.95;;;68.35;;
33644;SDS011;19986;48.190;16.366;2023-12-20T00:48:31;72.75;;;67.25;;
33644;SDS011;19986;48.190;16.366;2023-12-20T00:50:57;76.43;;;70.53;;
33644;SDS011;19986;48.190;16.366;2023-12-20T00:53:23;76.93;;;70.93;;
33644;SDS011;19986;48.190;16.366;2023-12-20T00:55:48;76.82;;;71.07;;
33644;SDS011;19986;48.190;16.366;2023-12-20T00:58:15;75.90;;;69.85;;
33644;SDS011;19986;48.190;16.366;2023-12-20T01:00:41;73.25;;;67.55;;
33644;SDS011;19986;48.190;16.366;2023-12-20T01:03:08;76.13;;;70.40;;
33644;SDS011;19986;48.190;16.366;2023-12-20T01:05:34;76.40;;;70.20;;
33644;SDS011;19986;48.190;16.366;2023-12-20T01:07:59;71.43;;;65.97;;
33644;SDS011;19986;48.190;16.366;2023-12-20T01:10:28;76.60;;;70.38;;
33644;SDS011;19986;48.190;16.366;2023-12-20T01:12:54;74.85;;;69.10;;
33644;SDS011;19986;48.190;16.366;2023-12-20T01:15:21;76.32;;;70.53;;
33644;SDS011;19986;48.190;16.366;2023-12-20T01:17:47;74.15;;;68.07;;
33644;SDS011;19986;48.190;16.366;2023-12-20T01:20:14;73.13;;;67.38;;
33644;SDS011;19986;48.190;16.366;2023-12-20T01:22:40;73.45;;;67.50;;
33644;SDS011;19986;48.190;16.366;2023-12-20T01:25:08;71.90;;;66.20;;
33644;SDS011;19986;48.190;16.366;2023-12-20T01:27:34;75.47;;;69.80;;
33644;SDS011;19986;48.190;16.366;2023-12-20T01:30:00;75.13;;;69.28;;
33644;SDS011;19986;48.190;16.366;2023-12-20T01:32:26;70.70;;;65.10;;
33644;SDS011;19986;48.190;16.366;2023-12-20T01:34:52;73.88;;;68.18;;
33644;SDS011;19986;48.190;16.366;2023-12-20T01:37:17;70.28;;;64.85;;
33644;SDS011;19986;48.190;16.366;2023-12-20T01:39:43;72.63;;;66.93;;
33644;SDS011;19986;48.190;16.366;2023-12-20T01:42:09;71.75;;;66.45;;
33644;SDS011;19986;48.190;16.366;2023-12-20T01:44:35;70.18;;;64.72;;
33644;SDS011;19986;48.190;16.366;2023-12-20T01:47:01;66.85;;;61.95;;
33644;SDS011;19986;48.190;16.366;2023-12-20T01:49:28;72.78;;;67.38;;
33644;SDS011;19986;48.190;16.366;2023-12-20T01:51:54;70.20;;;65.10;;
33644;SDS011;19986;48.190;16.366;2023-12-20T01:54:20;70.57;;;65.38;;
33644;SDS011;19986;48.190;16.366;2023-12-20T01:56:48;70.80;;;65.50;;
33644;SDS011;19986;48.190;16.366;2023-12-20T01:59:16;72.40;;;67.05;;
33644;SDS011;19986;48.190;16.366;2023-12-20T02:01:46;68.65;;;63.60;;
33644;SDS011;19986;48.190;16.366;2023-12-20T02:04:12;70.80;;;65.70;;
33644;SDS011;19986;48.190;16.366;2023-12-20T02:06:39;71.03;;;65.80;;
33644;SDS011;19986;48.190;16.366;2023-12-20T02:09:06;72.03;;;66.43;;
33644;SDS011;19986;48.190;16.366;2023-12-20T02:11:33;74.60;;;69.15;;
33644;SDS011;19986;48.190;16.366;2023-12-20T02:14:01;70.80;;;65.70;;
33644;SDS011;19986;48.190;16.366;2023-12-20T02:16:27;69.80;;;64.40;;
33644;SDS011;19986;48.190;16.366;2023-12-20T02:18:54;71.07;;;65.68;;
33644;SDS011;19986;48.190;16.366;2023-12-20T02:21:24;69.55;;;64.45;;
33644;SDS011;19986;48.190;16.366;2023-12-20T02:23:51;69.45;;;63.95;;
33644;SDS011;19986;48.190;16.366;2023-12-20T02:26:17;70.65;;;65.43;;
33644;SDS011;19986;48.190;16.366;2023-12-20T02:28:44;70.50;;;65.18;;
33644;SDS011;19986;48.190;16.366;2023-12-20T02:31:10;69.82;;;64.72;;
33644;SDS011;19986;48.190;16.366;2023-12-20T02:33:37;69.75;;;64.65;;
33644;SDS011;19986;48.190;16.366;2023-12-20T02:36:06;70.25;;;65.15;;
33644;SDS011;19986;48.190;16.366;2023-12-20T02:38:32;70.32;;;65.28;;
33644;SDS011;19986;48.190;16.366;2023-12-20T02:40:59;68.95;;;63.80;;
33644;SDS011;19986;48.190;16.366;2023-12-20T02:43:26;69.18;;;64.05;;
33644;SDS011;19986;48.190;16.366;2023-12-20T02:45:51;72.57;;;67.40;;
33644;SDS011;19986;48.190;16.366;2023-12-20T02:48:17;68.53;;;63.72;;
33644;SDS011;19986;48.190;16.366;2023-12-20T02:50:44;68.85;;;63.50;;
33644;SDS011;19986;48.190;16.366;2023-12-20T02:53:12;65.30;;;60.72;;
33644;SDS011;19986;48.190;16.366;2023-12-20T02:55:38;66.65;;;61.72;;
33644;SDS011;19986;48.190;16.366;2023-12-20T02:58:03;68.78;;;63.47;;
33644;SDS011;19986;48.190;16.366;2023-12-20T03:00:30;64.82;;;60.30;;
33644;SDS011;19986;48.190;16.366;2023-12-20T03:02:56;62.45;;;58.10;;
33644;SDS011;19986;48.190;16.366;2023-12-20T03:05:24;62.42;;;58.20;;
33644;SDS011;19986;48.190;16.366;2023-12-20T03:07:50;63.80;;;59.42;;
33644;SDS011;19986;48.190;16.366;2023-12-20T03:10:16;63.42;;;59.22;;
33644;SDS011;19986;48.190;16.366;2023-12-20T03:12:41;63.38;;;59.15;;
33644;SDS011;19986;48.190;16.366;2023-12-20T03:15:07;61.17;;;56.95;;
33644;SDS011;19986;48.190;16.366;2023-12-20T03:17:34;59.20;;;55.50;;
33644;SDS011;19986;48.190;16.366;2023-12-20T03:19:59;58.22;;;54.20;;
33644;SDS011;19986;48.190;16.366;2023-12-20T03:22:25;60.17;;;55.95;;
33644;SDS011;19986;48.190;16.366;2023-12-20T03:24:51;57.85;;;54.08;;
33644;SDS011;19986;48.190;16.366;2023-12-20T03:27:17;58.20;;;54.28;;
33644;SDS011;19986;48.190;16.366;2023-12-20T03:29:43;58.13;;;54.45;;
33644;SDS011;19986;48.190;16.366;2023-12-20T03:32:09;59.30;;;55.30;;
33644;SDS011;19986;48.190;16.366;2023-12-20T03:34:34;59.50;;;55.63;;
33644;SDS011;19986;48.190;16.366;2023-12-20T03:37:00;61.55;;;57.53;;
33644;SDS011;19986;48.190;16.366;2023-12-20T03:39:26;58.88;;;55.17;;
33644;SDS011;19986;48.190;16.366;2023-12-20T03:41:52;56.10;;;52.30;;
33644;SDS011;19986;48.190;16.366;2023-12-20T03:44:18;56.55;;;53.22;;
33644;SDS011;19986;48.190;16.366;2023-12-20T03:46:44;54.83;;;51.42;;
33644;SDS011;19986;48.190;16.366;2023-12-20T03:49:10;55.05;;;51.75;;
33644;SDS011;19986;48.190;16.366;2023-12-20T03:51:37;56.85;;;53.40;;
33644;SDS011;19986;48.190;16.366;2023-12-20T03:54:04;57.60;;;54.22;;
33644;SDS011;19986;48.190;16.366;2023-12-20T03:56:31;56.97;;;53.55;;
33644;SDS011;19986;48.190;16.366;2023-12-20T03:59:00;55.25;;;51.95;;
33644;SDS011;19986;48.190;16.366;2023-12-20T04:01:27;58.60;;;55.20;;
33644;SDS011;19986;48.190;16.366;2023-12-20T04:03:53;56.67;;;53.22;;
33644;SDS011;19986;48.190;16.366;2023-12-20T04:06:19;53.65;;;50.45;;
33644;SDS011;19986;48.190;16.366;2023-12-20T04:08:44;56.85;;;53.13;;
33644;SDS011;19986;48.190;16.366;2023-12-20T04:11:13;56.97;;;53.58;;
33644;SDS011;19986;48.190;16.366;2023-12-20T04:13:39;59.63;;;56.03;;
33644;SDS011;19986;48.190;16.366;2023-12-20T04:16:05;60.28;;;56.58;;
33644;SDS011;19986;48.190;16.366;2023-12-20T04:18:31;58.63;;;54.83;;
33644;SDS011;19986;48.190;16.366;2023-12-20T04:20:57;59.15;;;55.45;;
33644;SDS011;19986;48.190;16.366;2023-12-20T04:23:23;57.83;;;54.33;;
33644;SDS011;19986;48.190;16.366;2023-12-20T04:25:49;57.45;;;53.95;;
33644;SDS011;19986;48.190;16.366;2023-12-20T04:28:16;59.67;;;55.95;;
33644;SDS011;19986;48.190;16.366;2023-12-20T04:30:42;59.40;;;55.83;;
33644;SDS011;19986;48.190;16.366;2023-12-20T04:33:08;60.63;;;56.88;;
33644;SDS011;19986;48.190;16.366;2023-12-20T04:35:37;57.10;;;53.50;;
33644;SDS011;19986;48.190;16.366;2023-12-20T04:38:03;59.25;;;55.65;;
33644;SDS011;19986;48.190;16.366;2023-12-20T04:40:29;60.67;;;56.65;;
33644;SDS011;19986;48.190;16.366;2023-12-20T04:42:55;58.90;;;55.13;;
33644;SDS011;19986;48.190;16.366;2023-12-20T04:45:21;59.85;;;55.95;;
33644;SDS011;19986;48.190;16.366;2023-12-20T04:47:46;61.25;;;57.08;;
33644;SDS011;19986;48.190;16.366;2023-12-20T04:50:12;62.13;;;57.97;;
33644;SDS011;19986;48.190;16.366;2023-12-20T04:52:39;60.47;;;56.22;;
33644;SDS011;19986;48.190;16.366;2023-12-20T04:55:06;59.72;;;55.92;;
33644;SDS011;19986;48.190;16.366;2023-12-20T04:57:33;60.40;;;56.50;;
33644;SDS011;19986;48.190;16.366;2023-12-20T04:59:59;55.90;;;52.22;;
33644;SDS011;19986;48.190;16.366;2023-12-20T05:02:25;61.13;;;57.10;;
33644;SDS011;19986;48.190;16.366;2023-12-20T05:04:51;60.50;;;56.60;;
33644;SDS011;19986;48.190;16.366;2023-12-20T05:07:17;61.22;;;57.17;;
33644;SDS011;19986;48.190;16.366;2023-12-20T05:09:43;57.55;;;54.03;;
33644;SDS011;19986;48.190;16.366;2023-12-20T05:12:08;58.95;;;55.22;;
33644;SDS011;19986;48.190;16.366;2023-12-20T05:14:34;56.10;;;52.95;;
33644;SDS011;19986;48.190;16.366;2023-12-20T05:17:00;55.10;;;51.80;;
33644;SDS011;19986;48.190;16.366;2023-12-20T05:19:26;54.58;;;51.38;;
33644;SDS011;19986;48.190;16.366;2023-12-20T05:21:51;51.17;;;48.17;;
33644;SDS011;19986;48.190;16.366;2023-12-20T05:24:17;51.42;;;48.42;;
33644;SDS011;19986;48.190;16.366;2023-12-20T05:26:43;52.95;;;49.85;;
33644;SDS011;19986;48.190;16.366;2023-12-20T05:29:09;53.63;;;50.63;;
33644;SDS011;19986;48.190;16.366;2023-12-20T05:31:37;53.40;;;49.97;;
33644;SDS011;19986;48.190;16.366;2023-12-20T05:34:03;55.45;;;52.25;;
33644;SDS011;19986;48.190;16.366;2023-12-20T05:36:29;53.72;;;50.72;;
33644;SDS011;19986;48.190;16.366;2023-12-20T05:38:55;53.80;;;50.50;;
33644;SDS011;19986;48.190;16.366;2023-12-20T05:41:21;51.85;;;48.70;;
33644;SDS011;19986;48.190;16.366;2023-12-20T05:43:47;52.33;;;49.13;;
33644;SDS011;19986;48.190;16.366;2023-12-20T05:46:12;49.58;;;46.88;;
33644;SDS011;19986;48.190;16.366;2023-12-20T05:48:38;49.40;;;46.50;;
33644;SDS011;19986;48.190;16.366;2023-12-20T05:51:04;50.65;;;47.53;;
33644;SDS011;19986;48.190;16.366;2023-12-20T05:53:30;51.70;;;48.38;;
33644;SDS011;19986;48.190;16.366;2023-12-20T05:55:56;52.75;;;49.65;;
33644;SDS011;19986;48.190;16.366;2023-12-20T05:58:22;51.10;;;48.25;;
33644;SDS011;19986;48.190;16.366;2023-12-20T06:00:48;50.08;;;47.40;;
33644;SDS011;19986;48.190;16.366;2023-12-20T06:03:14;49.35;;;46.55;;
33644;SDS011;19986;48.190;16.366;2023-12-20T06:05:41;48.83;;;46.05;;
33644;SDS011;19986;48.190;16.366;2023-12-20T06:08:07;48.10;;;45.25;;
33644;SDS011;19986;48.190;16.366;2023-12-20T06:10:33;48.90;;;46.20;;
33644;SDS011;19986;48.190;16.366;2023-12-20T06:12:59;48.05;;;45.25;;
33644;SDS011;19986;48.190;16.366;2023-12-20T06:15:26;46.97;;;44.05;;
33644;SDS011;19986;48.190;16.366;2023-12-20T06:17:51;46.30;;;43.80;;
33644;SDS011;19986;48.190;16.366;2023-12-20T06:20:17;46.60;;;44.20;;
33644;SDS011;19986;48.190;16.366;2023-12-20T06:22:43;46.65;;;44.03;;
33644;SDS011;19986;48.190;16.366;2023-12-20T06:25:09;46.85;;;44.33;;
33644;SDS011;19986;48.190;16.366;2023-12-20T06:27:35;46.55;;;44.03;;
33644;SDS011;19986;48.190;16.366;2023-12-20T06:30:01;44.75;;;42.45;;
33644;SDS011;19986;48.190;16.366;2023-12-20T06:32:27;43.70;;;41.40;;
33644;SDS011;19986;48.190;16.366;2023-12-20T06:34:54;46.72;;;44.22;;
33644;SDS011;19986;48.190;16.366;2023-12-20T06:37:20;48.65;;;45.92;;
33644;SDS011;19986;48.190;16.366;2023-12-20T06:39:46;50.58;;;47.45;;
33644;SDS011;19986;48.190;16.366;2023-12-20T06:42:12;46.25;;;43.10;;
33644;SDS011;19986;48.190;16.366;2023-12-20T06:44:38;48.13;;;45.63;;
33644;SDS011;19986;48.190;16.366;2023-12-20T06:47:05;43.03;;;40.38;;
33644;SDS011;19986;48.190;16.366;2023-12-20T06:49:31;48.25;;;45.90;;
33644;SDS011;19986;48.190;16.366;2023-12-20T06:51:56;47.72;;;45.33;;
33644;SDS011;19986;48.190;16.366;2023-12-20T06:54:22;44.35;;;41.85;;
33644;SDS011;19986;48.190;16.366;2023-12-20T06:56:48;45.70;;;43.20;;
33644;SDS011;19986;48.190;16.366;2023-12-20T06:59:15;45.47;;;43.05;;
33644;SDS011;19986;48.190;16.366;2023-12-20T07:01:41;43.78;;;41.47;;
33644;SDS011;19986;48.190;16.366;2023-12-20T07:04:07;46.05;;;43.25;;
33644;SDS011;19986;48.190;16.366;2023-12-20T07:06:33;45.65;;;43.25;;
33644;SDS011;19986;48.190;16.366;2023-12-20T07:08:59;44.20;;;41.80;;
33644;SDS011;19986;48.190;16.366;2023-12-20T07:11:25;45.85;;;43.47;;
33644;SDS011;19986;48.190;16.366;2023-12-20T07:13:51;45.30;;;42.90;;
33644;SDS011;19986;48.190;16.366;2023-12-20T07:16:17;47.63;;;45.25;;
33644;SDS011;19986;48.190;16.366;2023-12-20T07:18:43;46.40;;;43.92;;
33644;SDS011;19986;48.190;16.366;2023-12-20T07:21:09;45.13;;;42.72;;
33644;SDS011;19986;48.190;16.366;2023-12-20T07:23:35;46.10;;;43.60;;
33644;SDS011;19986;48.190;16.366;2023-12-20T07:26:00;45.20;;;42.90;;
33644;SDS011;19986;48.190;16.366;2023-12-20T07:28:26;47.53;;;45.13;;
33644;SDS011;19986;48.190;16.366;2023-12-20T07:30:52;44.92;;;42.53;;
33644;SDS011;19986;48.190;16.366;2023-12-20T07:33:18;46.90;;;44.42;;
33644;SDS011;19986;48.190;16.366;2023-12-20T07:35:44;43.58;;;41.38;;
33644;SDS011;19986;48.190;16.366;2023-12-20T07:38:10;47.35;;;44.35;;
33644;SDS011;19986;48.190;16.366;2023-12-20T07:40:37;46.15;;;43.65;;
33644;SDS011;19986;48.190;16.366;2023-12-20T07:43:04;47.60;;;45.15;;
33644;SDS011;19986;48.190;16.366;2023-12-20T07:45:30;48.13;;;45.60;;
33644;SDS011;19986;48.190;16.366;2023-12-20T07:47:56;45.05;;;42.67;;
33644;SDS011;19986;48.190;16.366;2023-12-20T07:50:21;48.30;;;45.70;;
33644;SDS011;19986;48.190;16.366;2023-12-20T07:52:47;46.30;;;43.70;;
33644;SDS011;19986;48.190;16.366;2023-12-20T07:55:13;47.58;;;45.17;;
33644;SDS011;19986;48.190;16.366;2023-12-20T07:57:39;49.25;;;46.55;;
33644;SDS011;19986;48.190;16.366;2023-12-20T08:00:05;47.60;;;44.78;;
33644;SDS011;19986;48.190;16.366;2023-12-20T08:02:31;47.30;;;44.78;;
33644;SDS011;19986;48.190;16.366;2023-12-20T08:04:57;47.35;;;44.95;;
33644;SDS011;19986;48.190;16.366;2023-12-20T08:07:23;46.35;;;43.95;;
33644;SDS011;19986;48.190;16.366;2023-12-20T08:09:49;50.53;;;47.75;;
33644;SDS011;19986;48.190;16.366;2023-12-20T08:12:16;48.58;;;45.97;;
33644;SDS011;19986;48.190;16.366;2023-12-20T08:14:42;45.58;;;43.28;;
33644;SDS011;19986;48.190;16.366;2023-12-20T08:17:08;46.15;;;43.85;;
33644;SDS011;19986;48.190;16.366;2023-12-20T08:19:34;46.35;;;43.95;;
33644;SDS011;19986;48.190;16.366;2023-12-20T08:21:59;47.92;;;45.45;;
33644;SDS011;19986;48.190;16.366;2023-12-20T08:24:25;48.92;;;46.42;;
33644;SDS011;19986;48.190;16.366;2023-12-20T08:26:51;45.17;;;42.63;;
33644;SDS011;19986;48.190;16.366;2023-12-20T08:29:17;47.53;;;45.03;;
33644;SDS011;19986;48.190;16.366;2023-12-20T08:31:43;48.40;;;46.00;;
33644;SDS011;19986;48.190;16.366;2023-12-20T08:34:10;47.03;;;44.53;;
33644;SDS011;19986;48.190;16.366;2023-12-20T08:36:37;46.40;;;44.00;;
33644;SDS011;19986;48.190;16.366;2023-12-20T08:39:03;47.17;;;44.60;;
33644;SDS011;19986;48.190;16.366;2023-12-20T08:41:32;44.08;;;41.67;;
33644;SDS011;19986;48.190;16.366;2023-12-20T08:43:58;47.00;;;44.40;;
33644;SDS011;19986;48.190;16.366;2023-12-20T08:46:25;46.95;;;44.53;;
33644;SDS011;19986;48.190;16.366;2023-12-20T08:48:51;46.13;;;43.72;;
33644;SDS011;19986;48.190;16.366;2023-12-20T08:51:17;45.13;;;42.72;;
33644;SDS011;19986;48.190;16.366;2023-12-20T08:53:43;48.38;;;45.50;;
33644;SDS011;19986;48.190;16.366;2023-12-20T08:56:10;47.90;;;45.40;;
33644;SDS011;19986;48.190;16.366;2023-12-20T08:58:36;46.80;;;44.50;;
33644;SDS011;19986;48.190;16.366;2023-12-20T09:01:02;48.60;;;45.90;;
33644;SDS011;19986;48.190;16.366;2023-12-20T09:03:28;48.83;;;46.17;;
33644;SDS011;19986;48.190;16.366;2023-12-20T09:05:54;46.80;;;44.42;;
33644;SDS011;19986;48.190;16.366;2023-12-20T09:08:20;48.33;;;45.92;;
33644;SDS011;19986;48.190;16.366;2023-12-20T09:10:46;45.67;;;43.17;;
33644;SDS011;19986;48.190;16.366;2023-12-20T09:13:12;47.95;;;45.55;;
33644;SDS011;19986;48.190;16.366;2023-12-20T09:15:38;44.85;;;42.63;;
33644;SDS011;19986;48.190;16.366;2023-12-20T09:18:04;48.35;;;45.95;;
33644;SDS011;19986;48.190;16.366;2023-12-20T09:20:30;49.42;;;46.90;;
33644;SDS011;19986;48.190;16.366;2023-12-20T09:22:58;45.67;;;43.38;;
33644;SDS011;19986;48.190;16.366;2023-12-20T09:25:24;44.95;;;42.78;;
33644;SDS011;19986;48.190;16.366;2023-12-20T09:27:51;46.30;;;43.88;;
33644;SDS011;19986;48.190;16.366;2023-12-20T09:30:18;46.88;;;44.63;;
33644;SDS011;19986;48.190;16.366;2023-12-20T09:32:45;45.72;;;43.63;;
33644;SDS011;19986;48.190;16.366;2023-12-20T09:35:10;45.72;;;43.30;;
33644;SDS011;19986;48.190;16.366;2023-12-20T09:37:36;46.05;;;43.72;;
33644;SDS011;19986;48.190;16.366;2023-12-20T09:40:03;46.15;;;43.83;;
33644;SDS011;19986;48.190;16.366;2023-12-20T09:42:33;44.53;;;42.42;;
33644;SDS011;19986;48.190;16.366;2023-12-20T09:45:14;47.40;;;45.20;;
33644;SDS011;19986;48.190;16.366;2023-12-20T09:47:43;42.88;;;40.88;;
33644;SDS011;19986;48.190;16.366;2023-12-20T09:50:09;45.28;;;43.08;;
33644;SDS011;19986;48.190;16.366;2023-12-20T09:52:36;44.85;;;42.65;;
33644;SDS011;19986;48.190;16.366;2023-12-20T09:55:04;47.08;;;44.88;;
33644;SDS011;19986;48.190;16.366;2023-12-20T09:57:33;47.08;;;44.83;;
33644;SDS011;19986;48.190;16.366;2023-12-20T09:59:59;45.65;;;43.55;;
33644;SDS011;19986;48.190;16.366;2023-12-20T10:02:25;46.80;;;44.60;;
33644;SDS011;19986;48.190;16.366;2023-12-20T10:04:52;46.03;;;43.83;;
33644;SDS011;19986;48.190;16.366;2023-12-20T10:07:19;47.00;;;44.50;;
33644;SDS011;19986;48.190;16.366;2023-12-20T10:09:48;44.10;;;42.00;;
33644;SDS011;19986;48.190;16.366;2023-12-20T10:12:18;45.92;;;43.63;;
33644;SDS011;19986;48.190;16.366;2023-12-20T10:14:44;47.53;;;45.20;;
33644;SDS011;19986;48.190;16.366;2023-12-20T10:17:09;46.45;;;44.35;;
33644;SDS011;19986;48.190;16.366;2023-12-20T10:19:37;46.45;;;44.25;;
33644;SDS011;19986;48.190;16.366;2023-12-20T10:22:06;46.22;;;44.10;;
33644;SDS011;19986;48.190;16.366;2023-12-20T10:24:32;48.33;;;45.97;;
33644;SDS011;19986;48.190;16.366;2023-12-20T10:27:02;47.42;;;45.13;;
33644;SDS011;19986;48.190;16.366;2023-12-20T10:29:35;47.30;;;45.00;;
33644;SDS011;19986;48.190;16.366;2023-12-20T10:32:21;48.50;;;46.15;;
33644;SDS011;19986;48.190;16.366;2023-12-20T10:34:49;47.05;;;44.85;;
33644;SDS011;19986;48.190;16.366;2023-12-20T10:37:16;46.00;;;43.75;;
33644;SDS011;19986;48.190;16.366;2023-12-20T10:39:42;47.53;;;45.30;;
33644;SDS011;19986;48.190;16.366;2023-12-20T10:42:09;47.85;;;45.55;;
33644;SDS011;19986;48.190;16.366;2023-12-20T10:44:37;45.92;;;43.72;;
33644;SDS011;19986;48.190;16.366;2023-12-20T10:47:03;46.15;;;43.95;;
33644;SDS011;19986;48.190;16.366;2023-12-20T10:49:30;44.75;;;42.65;;
33644;SDS011;19986;48.190;16.366;2023-12-20T10:51:57;45.42;;;43.17;;
33644;SDS011;19986;48.190;16.366;2023-12-20T10:54:26;46.70;;;44.50;;
33644;SDS011;19986;48.190;16.366;2023-12-20T10:56:53;47.45;;;45.33;;
33644;SDS011;19986;48.190;16.366;2023-12-20T10:59:23;45.22;;;43.13;;
33644;SDS011;19986;48.190;16.366;2023-12-20T11:01:50;46.35;;;44.17;;
33644;SDS011;19986;48.190;16.366;2023-12-20T11:04:23;45.70;;;43.45;;
33644;SDS011;19986;48.190;16.366;2023-12-20T11:06:59;46.65;;;44.45;;
33644;SDS011;19986;48.190;16.366;2023-12-20T11:10:10;46.10;;;43.72;;
33644;SDS011;19986;48.190;16.366;2023-12-20T11:15:26;48.30;;;46.08;;
33644;SDS011;19986;48.190;16.366;2023-12-20T11:17:56;45.70;;;43.50;;
33644;SDS011;19986;48.190;16.366;2023-12-20T11:20:23;47.63;;;45.22;;
33644;SDS011;19986;48.190;16.366;2023-12-20T11:22:55;47.00;;;44.70;;
33644;SDS011;19986;48.190;16.366;2023-12-20T11:25:21;44.80;;;42.70;;
33644;SDS011;19986;48.190;16.366;2023-12-20T11:28:06;45.88;;;43.78;;
33644;SDS011;19986;48.190;16.366;2023-12-20T11:30:47;45.60;;;43.50;;
33644;SDS011;19986;48.190;16.366;2023-12-20T11:33:15;42.70;;;40.80;;
33644;SDS011;19986;48.190;16.366;2023-12-20T11:35:42;45.10;;;43.00;;
33644;SDS011;19986;48.190;16.366;2023-12-20T11:38:11;48.40;;;46.13;;
33644;SDS011;19986;48.190;16.366;2023-12-20T11:40:38;46.40;;;44.28;;
33644;SDS011;19986;48.190;16.366;2023-12-20T11:43:06;47.97;;;45.80;;
33644;SDS011;19986;48.190;16.366;2023-12-20T11:45:31;45.90;;;43.70;;
33644;SDS011;19986;48.190;16.366;2023-12-20T11:47:57;43.50;;;41.50;;
33644;SDS011;19986;48.190;16.366;2023-12-20T11:50:24;46.10;;;43.95;;
33644;SDS011;19986;48.190;16.366;2023-12-20T11:52:51;43.17;;;41.15;;
33644;SDS011;19986;48.190;16.366;2023-12-20T11:55:18;44.20;;;42.22;;
33644;SDS011;19986;48.190;16.366;2023-12-20T11:57:44;44.15;;;42.15;;
33644;SDS011;19986;48.190;16.366;2023-12-20T12:00:10;44.13;;;42.03;;
33644;SDS011;19986;48.190;16.366;2023-12-20T12:02:36;45.70;;;43.63;;
33644;SDS011;19986;48.190;16.366;2023-12-20T12:05:02;44.40;;;42.40;;
33644;SDS011;19986;48.190;16.366;2023-12-20T12:07:31;43.78;;;41.78;;
33644;SDS011;19986;48.190;16.366;2023-12-20T12:09:59;45.28;;;43.17;;
33644;SDS011;19986;48.190;16.366;2023-12-20T12:12:25;42.72;;;40.72;;
33644;SDS011;19986;48.190;16.366;2023-12-20T12:14:52;44.78;;;42.63;;
33644;SDS011;19986;48.190;16.366;2023-12-20T12:17:19;43.70;;;41.35;;
33644;SDS011;19986;48.190;16.366;2023-12-20T12:19:45;43.22;;;41.22;;
33644;SDS011;19986;48.190;16.366;2023-12-20T12:22:12;44.22;;;42.20;;
33644;SDS011;19986;48.190;16.366;2023-12-20T12:24:41;43.88;;;41.88;;
33644;SDS011;19986;48.190;16.366;2023-12-20T12:27:07;44.00;;;41.80;;
33644;SDS011;19986;48.190;16.366;2023-12-20T12:29:36;45.63;;;43.42;;
33644;SDS011;19986;48.190;16.366;2023-12-20T12:32:06;44.17;;;42.17;;
33644;SDS011;19986;48.190;16.366;2023-12-20T12:34:33;41.67;;;39.78;;
33644;SDS011;19986;48.190;16.366;2023-12-20T12:37:03;43.67;;;41.63;;
33644;SDS011;19986;48.190;16.366;2023-12-20T12:39:30;42.47;;;40.58;;
33644;SDS011;19986;48.190;16.366;2023-12-20T12:41:56;41.22;;;39.38;;
33644;SDS011;19986;48.190;16.366;2023-12-20T12:44:22;44.60;;;42.55;;
33644;SDS011;19986;48.190;16.366;2023-12-20T12:46:51;44.70;;;42.70;;
33644;SDS011;19986;48.190;16.366;2023-12-20T12:49:19;43.88;;;41.95;;
33644;SDS011;19986;48.190;16.366;2023-12-20T12:51:48;45.33;;;43.08;;
33644;SDS011;19986;48.190;16.366;2023-12-20T12:54:14;43.72;;;41.72;;
33644;SDS011;19986;48.190;16.366;2023-12-20T12:56:42;43.65;;;41.40;;
33644;SDS011;19986;48.190;16.366;2023-12-20T12:59:09;45.88;;;43.65;;
33644;SDS011;19986;48.190;16.366;2023-12-20T13:01:35;49.20;;;46.45;;
33644;SDS011;19986;48.190;16.366;2023-12-20T13:04:00;44.75;;;42.65;;
33644;SDS011;19986;48.190;16.366;2023-12-20T13:06:32;44.75;;;42.70;;
33644;SDS011;19986;48.190;16.366;2023-12-20T13:08:58;43.70;;;41.50;;
33644;SDS011;19986;48.190;16.366;2023-12-20T13:11:23;45.90;;;43.80;;
33644;SDS011;19986;48.190;16.366;2023-12-20T13:13:50;48.30;;;45.85;;
33644;SDS011;19986;48.190;16.366;2023-12-20T13:16:16;44.45;;;42.35;;
33644;SDS011;19986;48.190;16.366;2023-12-20T13:18:42;45.40;;;43.20;;
33644;SDS011;19986;48.190;16.366;2023-12-20T13:21:08;45.95;;;43.72;;
33644;SDS011;19986;48.190;16.366;2023-12-20T13:23:34;45.25;;;43.22;;
33644;SDS011;19986;48.190;16.366;2023-12-20T13:26:00;45.80;;;43.78;;
33644;SDS011;19986;48.190;16.366;2023-12-20T13:28:27;46.55;;;44.17;;
33644;SDS011;19986;48.190;16.366;2023-12-20T13:30:53;44.78;;;42.78;;
33644;SDS011;19986;48.190;16.366;2023-12-20T13:33:18;43.35;;;41.42;;
33644;SDS011;19986;48.190;16.366;2023-12-20T13:35:44;43.83;;;41.72;;
33644;SDS011;19986;48.190;16.366;2023-12-20T13:38:12;41.65;;;39.80;;
33644;SDS011;19986;48.190;16.366;2023-12-20T13:40:38;46.00;;;43.80;;
33644;SDS011;19986;48.190;16.366;2023-12-20T13:43:04;44.78;;;42.67;;
33644;SDS011;19986;48.190;16.366;2023-12-20T13:45:30;45.80;;;43.80;;
33644;SDS011;19986;48.190;16.366;2023-12-20T13:47:56;45.25;;;43.15;;
33644;SDS011;19986;48.190;16.366;2023-12-20T13:50:21;46.85;;;44.60;;
33644;SDS011;19986;48.190;16.366;2023-12-20T13:52:47;43.67;;;41.67;;
33644;SDS011;19986;48.190;16.366;2023-12-20T13:55:13;42.85;;;40.85;;
33644;SDS011;19986;48.190;16.366;2023-12-20T13:57:39;44.45;;;42.45;;
33644;SDS011;19986;48.190;16.366;2023-12-20T14:00:06;44.20;;;42.10;;
33644;SDS011;19986;48.190;16.366;2023-12-20T14:02:40;44.55;;;42.38;;
33644;SDS011;19986;48.190;16.366;2023-12-20T14:05:07;46.13;;;44.03;;
33644;SDS011;19986;48.190;16.366;2023-12-20T14:07:34;44.50;;;42.40;;
33644;SDS011;19986;48.190;16.366;2023-12-20T14:10:00;44.92;;;42.88;;